Thomson Spirit — 9HA2336 — position and weather

sailwx.info

Track history (hours):
 
Tides and Currents Weather Stations Pressure Air Temp Water Temp Dewpoint Dewpoint Depression Visibility Wind Speed Wind Dir Waves Ship Positions

Thomson Spirit

Last reported at 2015-Mar-28 15:26 UTC. Time now 2015-Mar-31 05:31 UTC.
Position N 36°07' E 025°39'.

Length 214 m; draft 7.8 m.

Type: Passenger vessel. MMSI: 248368000.

Date/timePositionNaut miles runAvg speedWind from/ knotsBaromVisibWave heightAir tempDewpointWater temp
2015-Mar-28 15:26N 36°07' E 025°39'1415.3
2015-Mar-28 14:31N 36°16' E 025°26'8 8.7
2015-Mar-28 13:33N 36°25' E 025°25'0 0.0
2015-Mar-28 12:30N 36°25' E 025°25'0 0.0
2015-Mar-28 11:33N 36°25' E 025°25'0 0.0
2015-Mar-28 10:28N 36°25' E 025°25'0 0.0
2015-Mar-28 09:31N 36°25' E 025°25'0 0.0
2015-Mar-28 08:33N 36°25' E 025°25'0 0.0
2015-Mar-28 07:30N 36°25' E 025°25'0 0.0
2015-Mar-28 06:33N 36°25' E 025°25'0 0.0
2015-Mar-28 05:27N 36°25' E 025°25'0 0.4
2015-Mar-28 04:33N 36°25' E 025°25'6 6.1
2015-Mar-28 03:33N 36°30' E 025°28'1413.7
2015-Mar-28 02:32N 36°30' E 025°45'1414.6
2015-Mar-28 01:33N 36°29' E 026°03'335 6.6
2015-Mar-25 22:31N 34°38' E 032°31'1212.5
2015-Mar-25 21:33N 34°34' E 032°45'1414.0
2015-Mar-25 20:33N 34°31' E 033°01'8 8.4
2015-Mar-25 19:33N 34°39' E 033°01'0 0.0
2015-Mar-25 18:31N 34°39' E 033°01'0 0.0
2015-Mar-25 17:32N 34°39' E 033°01'0 0.0
2015-Mar-25 16:31N 34°39' E 033°01'0 0.0
2015-Mar-25 15:31N 34°39' E 033°01'0 0.0
2015-Mar-25 14:32N 34°39' E 033°01'0 0.0
2015-Mar-25 13:31N 34°39' E 033°01'0 0.0
2015-Mar-25 12:31N 34°39' E 033°01'0 0.0
2015-Mar-25 11:32N 34°39' E 033°01'0 0.0
2015-Mar-25 10:31N 34°39' E 033°01'0 0.0
2015-Mar-25 09:32N 34°39' E 033°01'0 0.0
2015-Mar-25 08:32N 34°39' E 033°01'0 0.0
2015-Mar-25 07:32N 34°39' E 033°01'0 0.0
2015-Mar-25 06:32N 34°39' E 033°01'3 2.6
2015-Mar-25 05:33N 34°38' E 033°04'1111.3
2015-Mar-25 04:33N 34°32' E 032°53'1817.1
2015-Mar-25 03:31N 34°38' E 032°32'36613.6
2015-Mar-24 00:33N 37°12' E 025°43'1817.6
2015-Mar-23 23:34N 37°16' E 025°22'1817.6
2015-Mar-23 22:33N 37°19' E 024°60'5817.0
2015-Mar-23 19:10N 37°36' E 023°51'1016.5
2015-Mar-23 18:33N 37°43' E 023°41'1413.6
2015-Mar-23 17:33N 37°57' E 023°38'0 0.1
2015-Mar-23 16:22N 37°56' E 023°38'0 0.0
2015-Mar-23 15:27N 37°56' E 023°38'0 0.0
2015-Mar-23 14:25N 37°56' E 023°38'0 0.0
2015-Mar-23 13:22N 37°56' E 023°38'0 0.0
2015-Mar-23 12:27N 37°56' E 023°38'0 0.0
2015-Mar-23 11:31N 37°56' E 023°38'0 0.0
2015-Mar-23 10:33N 37°56' E 023°38'0 0.0
2015-Mar-23 09:18N 37°56' E 023°38'0 0.0
2015-Mar-23 08:27N 37°56' E 023°38'0 0.0
2015-Mar-23 07:13N 37°56' E 023°38'0 0.0
2015-Mar-23 06:13N 37°56' E 023°38'0 0.0
2015-Mar-23 05:30N 37°56' E 023°38'1 1.4
2015-Mar-23 04:32N 37°56' E 023°37'7 6.6
2015-Mar-23 03:33N 37°50' E 023°40'1716.5
2015-Mar-23 02:33N 37°38' E 023°55'79 2.8
2015-Mar-21 22:25N 37°45' E 025°34'1917.4
2015-Mar-21 21:19N 37°33' E 025°52'36412.9
2015-Mar-20 17:03N 34°40' E 032°28'816.3
2015-Mar-20 16:33N 34°37' E 032°37'1616.1
2015-Mar-20 15:33N 34°31' E 032°55'1010.4
2015-Mar-20 14:34N 34°39' E 033°03'1 1.5
2015-Mar-20 13:33N 34°39' E 033°01'0 0.0
2015-Mar-20 12:33N 34°39' E 033°01'0 0.0
2015-Mar-20 11:33N 34°39' E 033°01'0 0.0
2015-Mar-20 10:33N 34°39' E 033°01'0 0.0
2015-Mar-20 09:32N 34°39' E 033°01'0 0.0
2015-Mar-20 08:32N 34°39' E 033°01'0 0.0
2015-Mar-20 07:33N 34°39' E 033°01'0 0.0
2015-Mar-20 06:32N 34°39' E 033°01'0 0.0
2015-Mar-20 05:32N 34°39' E 033°01'0 0.0
2015-Mar-20 04:33N 34°39' E 033°01'0 0.0
2015-Mar-20 03:33N 34°39' E 033°01'0 0.0
2015-Mar-20 02:33N 34°39' E 033°01'0 0.0
2015-Mar-20 01:33N 34°39' E 033°01'0 0.0
2015-Mar-20 00:33N 34°39' E 033°01'0 0.0
2015-Mar-19 23:32N 34°39' E 033°01'0 0.0
2015-Mar-19 22:33N 34°39' E 033°01'0 0.0
2015-Mar-19 21:33N 34°39' E 033°01'0 0.0
2015-Mar-19 20:33N 34°39' E 033°01'0 0.0
2015-Mar-19 19:33N 34°39' E 033°01'0 0.0
2015-Mar-19 18:32N 34°39' E 033°01'0 0.0
2015-Mar-19 17:33N 34°39' E 033°01'0 0.0
2015-Mar-19 16:32N 34°39' E 033°01'0 0.0
2015-Mar-19 15:32N 34°39' E 033°01'0 0.0
2015-Mar-19 14:33N 34°39' E 033°01'0 0.0
2015-Mar-19 13:32N 34°39' E 033°01'0 0.0
2015-Mar-19 12:32N 34°39' E 033°01'0 0.0
2015-Mar-19 11:33N 34°39' E 033°01'0 0.0
2015-Mar-19 10:33N 34°39' E 033°01'0 0.0
2015-Mar-19 09:32N 34°39' E 033°01'0 0.0
2015-Mar-19 08:33N 34°39' E 033°01'0 0.0
2015-Mar-19 07:32N 34°39' E 033°01'0 0.0
2015-Mar-19 06:32N 34°39' E 033°01'0 0.0
2015-Mar-19 05:33N 34°39' E 033°01'0 0.0
2015-Mar-19 04:32N 34°39' E 033°01'0 0.0
2015-Mar-19 03:32N 34°39' E 033°01'0 0.0
2015-Mar-19 02:32N 34°39' E 033°01'0 0.0
2015-Mar-19 01:33N 34°39' E 033°01'0 0.0
2015-Mar-19 00:33N 34°39' E 033°01'0 0.0
2015-Mar-18 23:33N 34°39' E 033°01'0 0.0
2015-Mar-18 22:33N 34°39' E 033°01'0 0.0
2015-Mar-18 21:33N 34°39' E 033°01'0 0.0
2015-Mar-18 20:33N 34°39' E 033°01'0 0.0
2015-Mar-18 19:33N 34°39' E 033°01'0 0.0
2015-Mar-18 18:33N 34°39' E 033°01'0 0.0
2015-Mar-18 17:33N 34°39' E 033°01'0 0.0
2015-Mar-18 16:32N 34°39' E 033°01'0 0.0
2015-Mar-18 15:33N 34°39' E 033°01'  
Track history (hours):
 
Tides and Currents Weather Stations Pressure Air Temp Water Temp Dewpoint Dewpoint Depression Visibility Wind Speed Wind Dir Waves Ship Positions

Thomson Spirit

Last reported at 2015-Mar-28 15:26 UTC. Time now 2015-Mar-31 05:31 UTC.
Position N 36°07' E 025°39'.

Length 214 m; draft 7.8 m.

Type: Passenger vessel. MMSI: 248368000.

Date/timePositionNaut miles runAvg speedWind from/ knotsBaromVisibWave heightAir tempDewpointWater temp
2015-Mar-28 15:26N 36°07' E 025°39'1415.3
2015-Mar-28 14:31N 36°16' E 025°26'8 8.7
2015-Mar-28 13:33N 36°25' E 025°25'0 0.0
2015-Mar-28 12:30N 36°25' E 025°25'0 0.0
2015-Mar-28 11:33N 36°25' E 025°25'0 0.0
2015-Mar-28 10:28N 36°25' E 025°25'0 0.0
2015-Mar-28 09:31N 36°25' E 025°25'0 0.0
2015-Mar-28 08:33N 36°25' E 025°25'0 0.0
2015-Mar-28 07:30N 36°25' E 025°25'0 0.0
2015-Mar-28 06:33N 36°25' E 025°25'0 0.0
2015-Mar-28 05:27N 36°25' E 025°25'0 0.4
2015-Mar-28 04:33N 36°25' E 025°25'6 6.1
2015-Mar-28 03:33N 36°30' E 025°28'1413.7
2015-Mar-28 02:32N 36°30' E 025°45'1414.6
2015-Mar-28 01:33N 36°29' E 026°03'335 6.6
2015-Mar-25 22:31N 34°38' E 032°31'1212.5
2015-Mar-25 21:33N 34°34' E 032°45'1414.0
2015-Mar-25 20:33N 34°31' E 033°01'8 8.4
2015-Mar-25 19:33N 34°39' E 033°01'0 0.0
2015-Mar-25 18:31N 34°39' E 033°01'0 0.0
2015-Mar-25 17:32N 34°39' E 033°01'0 0.0
2015-Mar-25 16:31N 34°39' E 033°01'0 0.0
2015-Mar-25 15:31N 34°39' E 033°01'0 0.0
2015-Mar-25 14:32N 34°39' E 033°01'0 0.0
2015-Mar-25 13:31N 34°39' E 033°01'0 0.0
2015-Mar-25 12:31N 34°39' E 033°01'0 0.0
2015-Mar-25 11:32N 34°39' E 033°01'0 0.0
2015-Mar-25 10:31N 34°39' E 033°01'0 0.0
2015-Mar-25 09:32N 34°39' E 033°01'0 0.0
2015-Mar-25 08:32N 34°39' E 033°01'0 0.0
2015-Mar-25 07:32N 34°39' E 033°01'0 0.0
2015-Mar-25 06:32N 34°39' E 033°01'3 2.6
2015-Mar-25 05:33N 34°38' E 033°04'1111.3
2015-Mar-25 04:33N 34°32' E 032°53'1817.1
2015-Mar-25 03:31N 34°38' E 032°32'36613.6
2015-Mar-24 00:33N 37°12' E 025°43'1817.6
2015-Mar-23 23:34N 37°16' E 025°22'1817.6
2015-Mar-23 22:33N 37°19' E 024°60'5817.0
2015-Mar-23 19:10N 37°36' E 023°51'1016.5
2015-Mar-23 18:33N 37°43' E 023°41'1413.6
2015-Mar-23 17:33N 37°57' E 023°38'0 0.1
2015-Mar-23 16:22N 37°56' E 023°38'0 0.0
2015-Mar-23 15:27N 37°56' E 023°38'0 0.0
2015-Mar-23 14:25N 37°56' E 023°38'0 0.0
2015-Mar-23 13:22N 37°56' E 023°38'0 0.0
2015-Mar-23 12:27N 37°56' E 023°38'0 0.0
2015-Mar-23 11:31N 37°56' E 023°38'0 0.0
2015-Mar-23 10:33N 37°56' E 023°38'0 0.0
2015-Mar-23 09:18N 37°56' E 023°38'0 0.0
2015-Mar-23 08:27N 37°56' E 023°38'0 0.0
2015-Mar-23 07:13N 37°56' E 023°38'0 0.0
2015-Mar-23 06:13N 37°56' E 023°38'0 0.0
2015-Mar-23 05:30N 37°56' E 023°38'1 1.4
2015-Mar-23 04:32N 37°56' E 023°37'7 6.6
2015-Mar-23 03:33N 37°50' E 023°40'1716.5
2015-Mar-23 02:33N 37°38' E 023°55'79 2.8
2015-Mar-21 22:25N 37°45' E 025°34'1917.4
2015-Mar-21 21:19N 37°33' E 025°52'36412.9
2015-Mar-20 17:03N 34°40' E 032°28'816.3
2015-Mar-20 16:33N 34°37' E 032°37'1616.1
2015-Mar-20 15:33N 34°31' E 032°55'1010.4
2015-Mar-20 14:34N 34°39' E 033°03'1 1.5
2015-Mar-20 13:33N 34°39' E 033°01'0 0.0
2015-Mar-20 12:33N 34°39' E 033°01'0 0.0
2015-Mar-20 11:33N 34°39' E 033°01'0 0.0
2015-Mar-20 10:33N 34°39' E 033°01'0 0.0
2015-Mar-20 09:32N 34°39' E 033°01'0 0.0
2015-Mar-20 08:32N 34°39' E 033°01'0 0.0
2015-Mar-20 07:33N 34°39' E 033°01'0 0.0
2015-Mar-20 06:32N 34°39' E 033°01'0 0.0
2015-Mar-20 05:32N 34°39' E 033°01'0 0.0
2015-Mar-20 04:33N 34°39' E 033°01'0 0.0
2015-Mar-20 03:33N 34°39' E 033°01'0 0.0
2015-Mar-20 02:33N 34°39' E 033°01'0 0.0
2015-Mar-20 01:33N 34°39' E 033°01'0 0.0
2015-Mar-20 00:33N 34°39' E 033°01'0 0.0
2015-Mar-19 23:32N 34°39' E 033°01'0 0.0
2015-Mar-19 22:33N 34°39' E 033°01'0 0.0
2015-Mar-19 21:33N 34°39' E 033°01'0 0.0
2015-Mar-19 20:33N 34°39' E 033°01'0 0.0
2015-Mar-19 19:33N 34°39' E 033°01'0 0.0
2015-Mar-19 18:32N 34°39' E 033°01'0 0.0
2015-Mar-19 17:33N 34°39' E 033°01'0 0.0
2015-Mar-19 16:32N 34°39' E 033°01'0 0.0
2015-Mar-19 15:32N 34°39' E 033°01'0 0.0
2015-Mar-19 14:33N 34°39' E 033°01'0 0.0
2015-Mar-19 13:32N 34°39' E 033°01'0 0.0
2015-Mar-19 12:32N 34°39' E 033°01'0 0.0
2015-Mar-19 11:33N 34°39' E 033°01'0 0.0
2015-Mar-19 10:33N 34°39' E 033°01'0 0.0
2015-Mar-19 09:32N 34°39' E 033°01'0 0.0
2015-Mar-19 08:33N 34°39' E 033°01'0 0.0
2015-Mar-19 07:32N 34°39' E 033°01'0 0.0
2015-Mar-19 06:32N 34°39' E 033°01'0 0.0
2015-Mar-19 05:33N 34°39' E 033°01'0 0.0
2015-Mar-19 04:32N 34°39' E 033°01'0 0.0
2015-Mar-19 03:32N 34°39' E 033°01'0 0.0
2015-Mar-19 02:32N 34°39' E 033°01'0 0.0
2015-Mar-19 01:33N 34°39' E 033°01'0 0.0
2015-Mar-19 00:33N 34°39' E 033°01'0 0.0
2015-Mar-18 23:33N 34°39' E 033°01'0 0.0
2015-Mar-18 22:33N 34°39' E 033°01'0 0.0
2015-Mar-18 21:33N 34°39' E 033°01'0 0.0
2015-Mar-18 20:33N 34°39' E 033°01'0 0.0
2015-Mar-18 19:33N 34°39' E 033°01'0 0.0
2015-Mar-18 18:33N 34°39' E 033°01'0 0.0
2015-Mar-18 17:33N 34°39' E 033°01'0 0.0
2015-Mar-18 16:32N 34°39' E 033°01'0 0.0
2015-Mar-18 15:33N 34°39' E 033°01'  

Dump ship's entire track history